createdAt,value
2018-02-19T00:01:53.798Z,63.48
2018-02-19T00:04:21.423Z,63.49
2018-02-19T00:06:49.059Z,63.62
2018-02-19T00:09:16.735Z,63.72
2018-02-19T00:11:44.335Z,63.68
2018-02-19T00:14:12.053Z,63.72
2018-02-19T00:16:39.665Z,63.76
2018-02-19T00:19:07.353Z,63.73
2018-02-19T00:21:34.940Z,63.72
2018-02-19T00:24:02.600Z,63.72
2018-02-19T00:26:30.257Z,63.68
2018-02-19T00:28:57.925Z,63.66
2018-02-19T00:31:25.583Z,63.65
2018-02-19T00:33:53.249Z,63.56
2018-02-19T00:36:20.912Z,63.58
2018-02-19T00:38:48.582Z,63.45
2018-02-19T00:41:16.208Z,63.46
2018-02-19T00:43:43.819Z,63.54
2018-02-19T00:46:11.460Z,63.47
2018-02-19T00:48:39.126Z,63.49
2018-02-19T00:51:06.784Z,63.55
2018-02-19T00:53:34.453Z,63.66
2018-02-19T00:56:02.212Z,63.79
2018-02-19T00:58:29.876Z,63.85
2018-02-19T01:00:57.540Z,63.88
2018-02-19T01:03:25.136Z,63.87
2018-02-19T01:05:52.780Z,63.75
2018-02-19T01:08:20.389Z,63.89
2018-02-19T01:10:48.089Z,63.89
2018-02-19T01:13:15.721Z,63.91
2018-02-19T01:15:43.424Z,63.89
2018-02-19T01:18:11.076Z,63.74
2018-02-19T01:20:38.683Z,63.72
2018-02-19T01:23:06.307Z,63.66
2018-02-19T01:25:33.907Z,63.59
2018-02-19T01:28:01.537Z,63.56
2018-02-19T01:30:29.183Z,63.60
2018-02-19T01:32:56.847Z,63.60
2018-02-19T01:35:24.455Z,63.61
2018-02-19T01:37:52.172Z,63.59
2018-02-19T01:40:19.772Z,63.62
2018-02-19T01:42:47.399Z,63.62
2018-02-19T01:45:15.061Z,63.72
2018-02-19T01:47:42.728Z,63.77
2018-02-19T01:50:16.208Z,63.83
2018-02-19T01:52:43.889Z,63.85
2018-02-19T01:55:11.513Z,63.85
2018-02-19T01:57:39.124Z,63.87
2018-02-19T02:00:06.762Z,63.96
2018-02-19T02:02:34.359Z,64.01
2018-02-19T02:05:01.987Z,64.05
2018-02-19T02:07:29.600Z,64.18
2018-02-19T02:09:57.319Z,64.15
2018-02-19T02:12:24.986Z,64.16
2018-02-19T02:14:52.648Z,64.22
2018-02-19T02:17:20.307Z,64.21
2018-02-19T02:19:47.980Z,64.30
2018-02-19T02:22:15.636Z,64.32
2018-02-19T02:24:43.297Z,64.36
2018-02-19T02:27:10.927Z,64.43
2018-02-19T02:29:38.528Z,64.61
2018-02-19T02:32:06.151Z,64.74
2018-02-19T02:34:33.845Z,64.79
2018-02-19T02:37:01.508Z,64.79
2018-02-19T02:39:29.107Z,64.86
2018-02-19T02:41:56.841Z,64.87
2018-02-19T02:44:24.474Z,64.96
2018-02-19T02:46:52.080Z,65.04
2018-02-19T02:49:19.704Z,65.02
2018-02-19T02:51:47.311Z,65.06
2018-02-19T02:54:14.941Z,65.07
2018-02-19T02:56:42.609Z,65.22
2018-02-19T02:59:10.268Z,65.28
2018-02-19T03:01:37.873Z,65.48
2018-02-19T03:04:05.602Z,65.47
2018-02-19T03:06:33.260Z,65.59
2018-02-19T03:09:00.862Z,65.86
2018-02-19T03:11:28.497Z,65.91
2018-02-19T03:13:56.101Z,65.94
2018-02-19T03:16:23.729Z,66.10
2018-02-19T03:18:51.332Z,66.12
2018-02-19T03:21:18.960Z,66.25
2018-02-19T03:23:46.588Z,66.31
2018-02-19T03:26:14.248Z,66.29
2018-02-19T03:28:41.852Z,66.39
2018-02-19T03:31:09.577Z,66.39
2018-02-19T03:33:37.244Z,66.42
2018-02-19T03:36:04.868Z,66.48
2018-02-19T03:38:32.476Z,66.43
2018-02-19T03:41:00.132Z,66.55
2018-02-19T03:43:28.164Z,66.56
2018-02-19T03:45:55.860Z,66.60
2018-02-19T03:48:23.492Z,66.69
2018-02-19T03:50:51.097Z,66.72
2018-02-19T03:53:18.752Z,66.71
2018-02-19T03:55:46.356Z,66.87
2018-02-19T03:58:14.076Z,66.97
2018-02-19T04:00:41.764Z,67.06
2018-02-19T04:03:09.500Z,67.14
2018-02-19T04:05:37.113Z,67.14
2018-02-19T04:08:04.833Z,67.21
2018-02-19T04:10:32.487Z,67.26
2018-02-19T04:13:00.145Z,67.24
2018-02-19T04:15:27.768Z,67.22
2018-02-19T04:17:55.384Z,67.42
2018-02-19T04:20:23.043Z,67.30
2018-02-19T04:22:50.656Z,67.31
2018-02-19T04:25:18.288Z,67.33
2018-02-19T04:27:45.980Z,67.36
2018-02-19T04:30:13.611Z,67.46
2018-02-19T04:32:41.215Z,67.42
2018-02-19T04:35:08.918Z,67.47
2018-02-19T04:37:36.576Z,67.50
2018-02-19T04:40:04.544Z,67.52
2018-02-19T04:42:32.211Z,67.65
2018-02-19T04:45:02.341Z,67.86
2018-02-19T04:47:30.052Z,67.84
2018-02-19T04:49:57.739Z,67.79
2018-02-19T04:52:25.452Z,67.75
2018-02-19T04:54:53.188Z,67.78
2018-02-19T04:57:20.960Z,68.01
2018-02-19T04:59:48.721Z,68.04
2018-02-19T05:02:16.490Z,68.19
2018-02-19T05:04:44.179Z,68.30
2018-02-19T05:07:11.909Z,68.33
2018-02-19T05:09:39.573Z,68.55
2018-02-19T05:12:07.261Z,68.48
2018-02-19T05:14:35.000Z,68.51
2018-02-19T05:17:02.692Z,68.42
2018-02-19T05:19:30.428Z,68.37
2018-02-19T05:21:58.200Z,68.52
2018-02-19T05:24:25.912Z,68.46
2018-02-19T05:26:53.625Z,68.40
2018-02-19T05:29:21.344Z,68.41
2018-02-19T05:31:49.149Z,68.46
2018-02-19T05:34:16.917Z,68.39
2018-02-19T05:36:44.599Z,68.58
2018-02-19T05:39:12.344Z,68.66
2018-02-19T05:41:40.032Z,68.63
2018-02-19T05:44:07.760Z,68.64
2018-02-19T05:46:35.544Z,68.75
2018-02-19T05:49:03.234Z,68.76
2018-02-19T05:51:30.973Z,68.76
2018-02-19T05:53:58.664Z,68.94
2018-02-19T05:56:26.397Z,68.90
2018-02-19T05:58:54.004Z,68.90
2018-02-19T06:01:21.829Z,68.97
2018-02-19T06:03:49.585Z,68.92
2018-02-19T06:06:17.216Z,68.92
2018-02-19T06:08:44.824Z,68.72
2018-02-19T06:11:12.572Z,68.63
2018-02-19T06:13:40.184Z,68.61
2018-02-19T06:16:07.824Z,68.48
2018-02-19T06:18:35.566Z,68.32
2018-02-19T06:21:03.335Z,68.42
2018-02-19T06:23:30.992Z,68.28
2018-02-19T06:25:58.689Z,68.31
2018-02-19T06:28:26.392Z,68.26
2018-02-19T06:30:54.000Z,68.30
2018-02-19T06:33:21.643Z,68.29
2018-02-19T06:35:49.252Z,68.19
2018-02-19T06:38:16.972Z,68.17
2018-02-19T06:40:44.633Z,68.21
2018-02-19T06:43:12.400Z,68.25
2018-02-19T06:45:40.065Z,68.23
2018-02-19T06:48:07.696Z,68.16
2018-02-19T06:50:35.381Z,68.11
2018-02-19T06:53:03.044Z,68.03
2018-02-19T06:55:30.712Z,67.96
2018-02-19T06:57:58.480Z,67.83
2018-02-19T07:00:26.140Z,67.81
2018-02-19T07:02:53.744Z,67.74
2018-02-19T07:05:21.377Z,67.70
2018-02-19T07:07:48.992Z,67.75
2018-02-19T07:10:16.624Z,67.61
2018-02-19T07:12:44.252Z,67.51
2018-02-19T07:15:11.906Z,67.44
2018-02-19T07:17:39.569Z,67.42
2018-02-19T07:20:07.204Z,67.41
2018-02-19T07:22:34.816Z,67.28
2018-02-19T07:25:02.576Z,67.19
2018-02-19T07:27:30.194Z,67.02
2018-02-19T07:29:57.893Z,66.92
2018-02-19T07:32:25.505Z,66.84
2018-02-19T07:34:53.212Z,66.63
2018-02-19T07:37:20.818Z,66.50
2018-02-19T07:39:48.452Z,66.47
2018-02-19T07:42:16.056Z,66.32
2018-02-19T07:44:43.764Z,66.31
2018-02-19T07:47:11.432Z,66.21
2018-02-19T07:49:39.084Z,66.08
2018-02-19T07:52:07.462Z,65.93
2018-02-19T07:54:35.129Z,65.76
2018-02-19T07:57:02.787Z,65.60
2018-02-19T07:59:30.456Z,65.57
2018-02-19T08:01:58.113Z,65.60
2018-02-19T08:04:25.777Z,65.52
2018-02-19T08:06:53.407Z,65.46
2018-02-19T08:09:21.027Z,65.50
2018-02-19T08:11:48.661Z,65.53
2018-02-19T08:14:16.332Z,65.44
2018-02-19T08:16:43.996Z,65.46
2018-02-19T08:19:11.653Z,65.25
2018-02-19T08:21:39.300Z,65.08
2018-02-19T08:24:06.916Z,65.04
2018-02-19T08:26:34.523Z,64.74
2018-02-19T08:29:02.213Z,64.53
2018-02-19T08:31:29.869Z,64.43
2018-02-19T08:33:57.504Z,64.32
2018-02-19T08:36:25.201Z,64.25
2018-02-19T08:38:52.882Z,64.16
2018-02-19T08:41:20.520Z,63.96
2018-02-19T08:43:48.184Z,63.87
2018-02-19T08:46:15.848Z,63.54
2018-02-19T08:48:43.480Z,63.45
2018-02-19T08:51:11.096Z,63.30
2018-02-19T08:53:38.832Z,63.26
2018-02-19T08:56:06.492Z,63.17
2018-02-19T08:58:34.124Z,63.17
2018-02-19T09:01:01.828Z,63.23
2018-02-19T09:03:29.460Z,62.77
2018-02-19T09:05:57.968Z,62.77
2018-02-19T09:08:25.629Z,62.71
2018-02-19T09:10:53.250Z,62.48
2018-02-19T09:13:20.884Z,62.32
2018-02-19T09:15:48.533Z,62.13
2018-02-19T09:18:16.176Z,61.93
2018-02-19T09:20:44.556Z,62.10
2018-02-19T09:23:12.209Z,62.28
2018-02-19T09:25:39.884Z,62.14
2018-02-19T09:28:07.496Z,62.03
2018-02-19T09:30:35.209Z,61.89
2018-02-19T09:33:02.824Z,61.76
2018-02-19T09:35:30.539Z,61.60
2018-02-19T09:37:58.157Z,61.44
2018-02-19T09:40:25.792Z,60.93
2018-02-19T09:42:53.405Z,60.49
2018-02-19T09:45:21.045Z,60.38
2018-02-19T09:47:48.687Z,60.38
2018-02-19T09:50:16.308Z,60.19
2018-02-19T09:52:43.921Z,60.25
2018-02-19T09:55:11.532Z,60.18
2018-02-19T09:57:39.176Z,60.12
2018-02-19T10:00:06.856Z,59.43
2018-02-19T10:02:34.614Z,59.26
2018-02-19T10:05:02.262Z,59.32
2018-02-19T10:07:29.949Z,59.67
2018-02-19T10:09:57.604Z,59.09
2018-02-19T10:12:25.273Z,59.06
2018-02-19T10:14:52.883Z,58.82
2018-02-19T10:17:20.511Z,58.82
2018-02-19T10:19:48.161Z,59.00
2018-02-19T10:22:15.825Z,59.03
2018-02-19T10:24:43.484Z,58.42
2018-02-19T10:27:11.113Z,57.78
2018-02-19T10:29:38.726Z,57.90
2018-02-19T10:32:06.372Z,58.06
2018-02-19T10:34:34.028Z,57.88
2018-02-19T10:37:01.660Z,57.51
2018-02-19T10:39:29.352Z,57.66
2018-02-19T10:41:57.020Z,57.18
2018-02-19T10:44:25.196Z,57.01
2018-02-19T10:46:52.860Z,57.10
2018-02-19T10:49:20.523Z,57.32
2018-02-19T10:51:48.184Z,57.33
2018-02-19T10:54:15.848Z,57.06
2018-02-19T10:56:43.504Z,56.88
2018-02-19T10:59:11.180Z,56.87
2018-02-19T11:01:38.795Z,56.65
2018-02-19T11:06:38.048Z,56.51
2018-02-19T11:09:05.680Z,56.51
2018-02-19T11:11:33.293Z,56.70
2018-02-19T11:14:00.933Z,56.71
2018-02-19T11:16:28.544Z,56.72
2018-02-19T11:18:56.264Z,56.92
2018-02-19T11:21:23.921Z,56.99
2018-02-19T11:23:51.561Z,56.87
2018-02-19T11:26:19.173Z,56.59
2018-02-19T11:28:46.916Z,56.50
2018-02-19T11:31:14.524Z,56.32
2018-02-19T11:33:42.236Z,56.19
2018-02-19T11:36:09.903Z,56.29
2018-02-19T11:38:37.668Z,56.37
2018-02-19T11:41:05.332Z,55.97
2018-02-19T11:43:32.945Z,55.74
2018-02-19T11:46:00.656Z,55.24
2018-02-19T11:48:28.316Z,55.08
2018-02-19T11:50:55.980Z,55.13
2018-02-19T11:53:23.649Z,54.79
2018-02-19T11:55:51.305Z,54.86
2018-02-19T11:58:18.921Z,54.71
2018-02-19T12:00:46.564Z,54.24
2018-02-19T12:03:14.197Z,54.40
2018-02-19T12:05:41.824Z,54.73
2018-02-19T12:08:09.448Z,54.72
2018-02-19T12:10:37.076Z,54.44
2018-02-19T12:13:04.688Z,54.43
2018-02-19T12:15:32.320Z,53.90
2018-02-19T12:17:59.932Z,53.69
2018-02-19T12:20:27.628Z,53.11
2018-02-19T12:22:55.292Z,53.09
2018-02-19T12:25:22.904Z,52.87
2018-02-19T12:27:50.564Z,52.75
2018-02-19T12:30:18.180Z,52.62
2018-02-19T12:32:45.843Z,52.27
2018-02-19T12:35:13.501Z,52.12
2018-02-19T12:37:41.140Z,51.51
2018-02-19T12:40:08.748Z,51.57
2018-02-19T12:42:36.377Z,51.57
2018-02-19T12:45:03.984Z,51.62
2018-02-19T12:47:31.612Z,51.32
2018-02-19T12:49:59.276Z,51.42
2018-02-19T12:52:26.916Z,51.34
2018-02-19T12:54:54.528Z,51.41
2018-02-19T12:57:22.177Z,51.37
2018-02-19T12:59:49.793Z,51.38
2018-02-19T13:02:17.400Z,51.32
2018-02-19T13:04:45.038Z,51.24
2018-02-19T13:07:12.711Z,51.34
2018-02-19T13:09:40.372Z,51.26
2018-02-19T13:12:08.372Z,50.76
2018-02-19T13:14:36.104Z,51.02
2018-02-19T13:17:03.772Z,50.86
2018-02-19T13:19:31.428Z,50.94
2018-02-19T13:21:59.041Z,50.74
2018-02-19T13:24:26.760Z,50.68
2018-02-19T13:26:54.425Z,50.67
2018-02-19T13:29:22.088Z,50.52
2018-02-19T13:31:49.748Z,50.50
2018-02-19T13:34:17.506Z,50.55
2018-02-19T13:36:45.116Z,50.35
2018-02-19T13:39:12.856Z,50.43
2018-02-19T13:41:40.489Z,50.59
2018-02-19T13:44:08.112Z,50.91
2018-02-19T13:46:35.748Z,51.08
2018-02-19T13:49:03.360Z,51.18
2018-02-19T13:51:31.048Z,51.07
2018-02-19T13:53:58.685Z,51.22
2018-02-19T13:56:26.376Z,51.20
2018-02-19T13:58:54.140Z,51.01
2018-02-19T14:01:21.804Z,51.02
2018-02-19T14:03:49.416Z,51.26
2018-02-19T14:06:17.054Z,51.31
2018-02-19T14:08:44.672Z,51.37
2018-02-19T14:11:12.388Z,51.40
2018-02-19T14:13:39.988Z,51.31
2018-02-19T14:16:07.601Z,51.58
2018-02-19T14:18:35.232Z,51.81
2018-02-19T14:21:02.836Z,51.81
2018-02-19T14:23:30.565Z,51.79
2018-02-19T14:25:58.176Z,51.79
2018-02-19T14:28:25.816Z,51.66
2018-02-19T14:30:53.437Z,51.86
2018-02-19T14:33:21.104Z,51.96
2018-02-19T14:35:48.712Z,51.98
2018-02-19T14:38:16.348Z,52.02
2018-02-19T14:40:44.000Z,51.97
2018-02-19T14:43:11.628Z,51.74
2018-02-19T14:45:39.236Z,51.79
2018-02-19T14:48:06.980Z,51.99
2018-02-19T14:50:34.588Z,51.92
2018-02-19T14:53:02.310Z,51.86
2018-02-19T14:55:29.940Z,52.06
2018-02-19T14:57:57.641Z,52.21
2018-02-19T15:00:25.276Z,52.33
2018-02-19T15:02:52.965Z,52.55
2018-02-19T15:05:20.632Z,52.71
2018-02-19T15:07:48.245Z,52.92
2018-02-19T15:10:15.980Z,52.57
2018-02-19T15:12:43.617Z,52.47
2018-02-19T15:15:11.281Z,52.57
2018-02-19T15:17:38.892Z,52.61
2018-02-19T15:20:06.610Z,52.86
2018-02-19T15:22:34.263Z,52.96
2018-02-19T15:25:01.917Z,52.85
2018-02-19T15:27:29.529Z,52.66
2018-02-19T15:29:57.143Z,52.77
2018-02-19T15:32:24.812Z,52.85
2018-02-19T15:34:52.420Z,53.09
2018-02-19T15:37:20.055Z,53.28
2018-02-19T15:39:47.664Z,53.56
2018-02-19T15:42:15.364Z,53.61
2018-02-19T15:44:43.121Z,53.59
2018-02-19T15:47:10.756Z,53.26
2018-02-19T15:49:38.453Z,53.15
2018-02-19T15:52:06.120Z,53.11
2018-02-19T15:54:33.728Z,53.16
2018-02-19T15:57:01.360Z,53.11
2018-02-19T15:59:29.000Z,53.51
2018-02-19T16:01:56.768Z,53.88
2018-02-19T16:04:24.381Z,54.22
2018-02-19T16:06:51.988Z,54.49
2018-02-19T16:09:19.622Z,54.82
2018-02-19T16:11:47.236Z,55.19
2018-02-19T16:14:14.868Z,55.62
2018-02-19T16:16:42.488Z,56.08
2018-02-19T16:19:10.120Z,56.40
2018-02-19T16:21:37.765Z,56.75
2018-02-19T16:24:05.423Z,57.09
2018-02-19T16:26:33.036Z,57.56
2018-02-19T16:29:00.670Z,57.97
2018-02-19T16:31:28.280Z,58.26
2018-02-19T16:33:55.972Z,58.51
2018-02-19T16:36:23.588Z,58.98
2018-02-19T16:38:51.299Z,59.21
2018-02-19T16:41:18.961Z,59.42
2018-02-19T16:43:46.624Z,59.68
2018-02-19T16:46:14.261Z,59.95
2018-02-19T16:48:41.884Z,60.21
2018-02-19T16:51:09.608Z,60.51
2018-02-19T16:53:37.212Z,60.86
2018-02-19T16:56:04.933Z,61.03
2018-02-19T16:58:32.548Z,61.31
2018-02-19T17:01:00.180Z,61.46
2018-02-19T17:03:27.824Z,61.68
2018-02-19T17:05:55.483Z,61.78
2018-02-19T17:08:23.956Z,62.10
2018-02-19T17:10:51.628Z,62.31
2018-02-19T17:13:19.296Z,62.45
2018-02-19T17:15:46.961Z,62.65
2018-02-19T17:18:14.620Z,62.77
2018-02-19T17:20:42.384Z,63.07
2018-02-19T17:23:09.988Z,63.23
2018-02-19T17:25:37.604Z,63.57
2018-02-19T17:28:05.272Z,63.80
2018-02-19T17:30:32.934Z,64.00
2018-02-19T17:33:00.572Z,64.16
2018-02-19T17:35:28.180Z,64.36
2018-02-19T17:37:55.846Z,64.58
2018-02-19T17:40:23.448Z,64.56
2018-02-19T17:42:51.093Z,64.71
2018-02-19T17:45:18.808Z,64.83
2018-02-19T17:47:46.472Z,64.95
2018-02-19T17:50:14.130Z,65.18
2018-02-19T17:52:41.768Z,65.29
2018-02-19T17:55:09.380Z,66.23
2018-02-19T17:57:37.120Z,68.28
2018-02-19T18:00:04.732Z,68.60
2018-02-19T18:02:32.365Z,68.58
2018-02-19T18:04:59.976Z,69.49
2018-02-19T18:07:27.668Z,69.98
2018-02-19T18:09:55.332Z,69.02
2018-02-19T18:12:22.940Z,69.92
2018-02-19T18:14:50.576Z,70.89
2018-02-19T18:17:18.211Z,67.63
2018-02-19T18:19:45.844Z,66.67
2018-02-19T18:22:13.545Z,66.33
2018-02-19T18:24:41.176Z,66.13
2018-02-19T18:27:08.872Z,66.04
2018-02-19T18:29:36.503Z,66.03
2018-02-19T18:32:04.196Z,66.07
2018-02-19T18:34:31.860Z,66.10
2018-02-19T18:36:59.472Z,66.14
2018-02-19T18:39:27.108Z,66.28
2018-02-19T18:41:54.716Z,66.30
2018-02-19T18:44:22.400Z,66.37
2018-02-19T18:46:50.068Z,66.54
2018-02-19T18:49:17.732Z,66.70
2018-02-19T18:51:45.349Z,66.84
2018-02-19T18:54:12.960Z,66.95
2018-02-19T18:56:40.588Z,66.99
2018-02-19T18:59:08.201Z,66.98
2018-02-19T19:01:35.940Z,67.07
2018-02-19T19:04:03.552Z,67.18
2018-02-19T19:06:31.272Z,67.21
2018-02-19T19:09:10.745Z,67.27
2018-02-19T19:11:38.373Z,67.30
2018-02-19T19:14:05.985Z,67.33
2018-02-19T19:16:33.620Z,67.50
2018-02-19T19:19:01.224Z,67.48
2018-02-19T19:21:28.871Z,67.57
2018-02-19T19:23:56.482Z,67.61
2018-02-19T19:26:24.120Z,67.69
2018-02-19T19:28:51.812Z,67.81
2018-02-19T19:31:19.426Z,68.07
2018-02-19T19:33:47.122Z,68.09
2018-02-19T19:36:14.705Z,68.12
2018-02-19T19:38:42.352Z,68.27
2018-02-19T19:41:10.021Z,68.29
2018-02-19T19:43:37.651Z,68.37
2018-02-19T19:46:05.344Z,68.38
2018-02-19T19:48:33.012Z,68.49
2018-02-19T19:51:00.624Z,68.47
2018-02-19T19:53:28.332Z,68.61
2018-02-19T19:55:55.944Z,68.66
2018-02-19T19:58:23.651Z,68.77
2018-02-19T20:00:51.317Z,68.81
2018-02-19T20:03:18.988Z,68.85
2018-02-19T20:05:46.648Z,69.01
2018-02-19T20:08:14.280Z,69.19
2018-02-19T20:10:41.892Z,69.20
2018-02-19T20:13:09.528Z,69.35
2018-02-19T20:15:37.501Z,69.46
2018-02-19T20:18:05.260Z,69.64
2018-02-19T20:20:32.924Z,69.67
2018-02-19T20:23:00.536Z,69.77
2018-02-19T20:25:28.257Z,69.83
2018-02-19T20:27:55.868Z,69.83
2018-02-19T20:30:23.501Z,69.94
2018-02-19T20:32:51.108Z,69.91
2018-02-19T20:35:18.737Z,69.78
2018-02-19T20:37:46.364Z,69.78
2018-02-19T20:40:13.997Z,69.75
2018-02-19T20:42:41.612Z,69.73
2018-02-19T20:45:09.267Z,69.63
2018-02-19T20:47:36.879Z,69.49
2018-02-19T20:50:04.587Z,69.44
2018-02-19T20:52:32.231Z,69.47
2018-02-19T20:54:59.903Z,69.37
2018-02-19T20:57:27.536Z,69.35
2018-02-19T20:59:55.228Z,69.41
2018-02-19T21:02:22.882Z,69.40
2018-02-19T21:04:50.498Z,69.38
2018-02-19T21:07:18.132Z,69.28
2018-02-19T21:09:45.785Z,69.25
2018-02-19T21:12:13.440Z,69.15
2018-02-19T21:14:41.052Z,69.13
2018-02-19T21:17:08.700Z,69.00
2018-02-19T21:19:36.348Z,68.98
2018-02-19T21:22:03.994Z,68.95
2018-02-19T21:24:31.648Z,68.86
2018-02-19T21:26:59.280Z,68.83
2018-02-19T21:29:26.892Z,68.79
2018-02-19T21:31:54.524Z,68.76
2018-02-19T21:34:22.128Z,68.74
2018-02-19T21:36:49.763Z,68.64
2018-02-19T21:39:17.424Z,68.59
2018-02-19T21:41:45.080Z,68.46
2018-02-19T21:44:13.251Z,68.42
2018-02-19T21:46:40.942Z,68.32
2018-02-19T21:49:08.571Z,68.23
2018-02-19T21:51:36.184Z,68.29
2018-02-19T21:54:03.912Z,68.24
2018-02-19T21:56:31.536Z,68.24
2018-02-19T21:58:59.180Z,68.29
2018-02-19T22:01:26.789Z,68.11
2018-02-19T22:03:54.429Z,67.99
2018-02-19T22:06:22.124Z,67.93
2018-02-19T22:08:49.756Z,67.84
2018-02-19T22:11:17.369Z,67.80
2018-02-19T22:13:45.145Z,67.64
2018-02-19T22:16:12.780Z,67.59
2018-02-19T22:18:40.432Z,67.62
2018-02-19T22:21:08.064Z,67.53
2018-02-19T22:23:35.676Z,67.67
2018-02-19T22:26:03.309Z,67.74
2018-02-19T22:28:30.984Z,67.79
2018-02-19T22:30:58.648Z,67.83
2018-02-19T22:33:26.260Z,67.90
2018-02-19T22:35:53.896Z,67.87
2018-02-19T22:38:21.536Z,68.09
2018-02-19T22:40:49.172Z,68.02
2018-02-19T22:43:17.624Z,68.06
2018-02-19T22:45:45.340Z,68.14
2018-02-19T22:48:12.948Z,68.22
2018-02-19T22:50:40.664Z,68.26
2018-02-19T22:53:08.332Z,68.32
2018-02-19T22:55:36.092Z,68.41
2018-02-19T22:58:03.756Z,68.60
2018-02-19T23:00:31.425Z,68.60
2018-02-19T23:02:59.051Z,68.64
2018-02-19T23:05:26.740Z,68.64
2018-02-19T23:07:54.372Z,68.61
2018-02-19T23:10:22.076Z,68.65
2018-02-19T23:12:49.710Z,68.70
2018-02-19T23:15:17.392Z,68.76
2018-02-19T23:17:45.028Z,68.84
2018-02-19T23:20:12.651Z,68.92
2018-02-19T23:22:40.290Z,69.01
2018-02-19T23:25:07.939Z,69.00
2018-02-19T23:27:36.212Z,68.99
2018-02-19T23:30:03.893Z,69.12
2018-02-19T23:32:31.513Z,69.07
2018-02-19T23:35:02.440Z,69.05
2018-02-19T23:37:26.807Z,68.99
2018-02-19T23:39:54.544Z,68.97
2018-02-19T23:42:22.213Z,68.92
2018-02-19T23:44:49.853Z,68.72
2018-02-19T23:47:17.516Z,68.66
2018-02-19T23:49:45.188Z,68.58
2018-02-19T23:52:12.853Z,68.52
2018-02-19T23:54:40.493Z,68.43
2018-02-19T23:57:08.176Z,68.30
2018-02-19T23:59:35.840Z,68.33
